sensor_id;sensor_type;location;lat;lon;timestamp;pressure;altitude;pressure_sealevel;temperature;humidity
64827;BME280;51265;53.972;12.286;2023-05-08T00:01:52;102043.38;;;5.31;100.00
64827;BME280;51265;53.972;12.286;2023-05-08T00:04:18;102046.31;;;5.30;100.00
64827;BME280;51265;53.972;12.286;2023-05-08T00:06:45;102034.84;;;5.21;100.00
64827;BME280;51265;53.972;12.286;2023-05-08T00:09:12;102038.72;;;5.13;100.00
64827;BME280;51265;53.972;12.286;2023-05-08T00:11:38;102037.31;;;5.11;100.00
64827;BME280;51265;53.972;12.286;2023-05-08T00:14:04;102034.88;;;5.03;100.00
64827;BME280;51265;53.972;12.286;2023-05-08T00:16:31;102038.19;;;5.05;100.00
64827;BME280;51265;53.972;12.286;2023-05-08T00:18:57;102037.59;;;5.03;100.00
64827;BME280;51265;53.972;12.286;2023-05-08T00:21:24;102039.56;;;4.95;100.00
64827;BME280;51265;53.972;12.286;2023-05-08T00:23:50;102039.56;;;5.14;100.00
64827;BME280;51265;53.972;12.286;2023-05-08T00:26:16;102046.84;;;5.20;100.00
64827;BME280;51265;53.972;12.286;2023-05-08T00:28:42;102042.28;;;5.14;100.00
64827;BME280;51265;53.972;12.286;2023-05-08T00:31:09;102044.72;;;5.22;100.00
64827;BME280;51265;53.972;12.286;2023-05-08T00:33:36;102043.50;;;5.18;100.00
64827;BME280;51265;53.972;12.286;2023-05-08T00:36:03;102043.97;;;5.15;100.00
64827;BME280;51265;53.972;12.286;2023-05-08T00:38:30;102053.22;;;4.95;100.00
64827;BME280;51265;53.972;12.286;2023-05-08T00:40:56;102056.97;;;4.76;100.00
64827;BME280;51265;53.972;12.286;2023-05-08T00:43:23;102058.47;;;4.72;100.00
64827;BME280;51265;53.972;12.286;2023-05-08T00:45:55;102053.50;;;4.69;100.00
64827;BME280;51265;53.972;12.286;2023-05-08T00:48:22;102056.81;;;4.71;100.00
64827;BME280;51265;53.972;12.286;2023-05-08T00:50:50;102057.09;;;4.63;100.00
64827;BME280;51265;53.972;12.286;2023-05-08T00:53:19;102058.91;;;4.50;100.00
64827;BME280;51265;53.972;12.286;2023-05-08T00:55:48;102059.38;;;4.47;100.00
64827;BME280;51265;53.972;12.286;2023-05-08T00:58:16;102062.69;;;4.49;100.00
64827;BME280;51265;53.972;12.286;2023-05-08T01:00:43;102064.69;;;4.61;100.00
64827;BME280;51265;53.972;12.286;2023-05-08T01:03:11;102063.00;;;4.60;100.00
64827;BME280;51265;53.972;12.286;2023-05-08T01:05:37;102073.91;;;4.60;100.00
64827;BME280;51265;53.972;12.286;2023-05-08T01:08:03;102065.41;;;4.49;100.00
64827;BME280;51265;53.972;12.286;2023-05-08T01:10:50;102069.50;;;4.40;100.00
64827;BME280;51265;53.972;12.286;2023-05-08T01:13:31;102070.38;;;4.34;100.00
64827;BME280;51265;53.972;12.286;2023-05-08T01:16:13;102067.75;;;4.21;100.00
64827;BME280;51265;53.972;12.286;2023-05-08T01:18:49;102065.50;;;4.11;100.00
64827;BME280;51265;53.972;12.286;2023-05-08T01:21:24;102078.53;;;4.09;100.00
64827;BME280;51265;53.972;12.286;2023-05-08T01:27:17;102079.72;;;4.20;100.00
64827;BME280;51265;53.972;12.286;2023-05-08T01:32:40;102074.38;;;4.32;100.00
64827;BME280;51265;53.972;12.286;2023-05-08T01:35:12;102076.72;;;4.28;100.00
64827;BME280;51265;53.972;12.286;2023-05-08T01:38:07;102085.34;;;4.25;100.00
64827;BME280;51265;53.972;12.286;2023-05-08T01:40:55;102082.13;;;4.35;100.00
64827;BME280;51265;53.972;12.286;2023-05-08T01:43:30;102078.75;;;4.39;100.00
64827;BME280;51265;53.972;12.286;2023-05-08T01:46:03;102087.09;;;4.44;100.00
64827;BME280;51265;53.972;12.286;2023-05-08T01:48:34;102077.44;;;4.42;100.00
64827;BME280;51265;53.972;12.286;2023-05-08T01:51:07;102083.28;;;4.45;100.00
64827;BME280;51265;53.972;12.286;2023-05-08T01:53:41;102086.19;;;4.50;100.00
64827;BME280;51265;53.972;12.286;2023-05-08T01:56:13;102080.13;;;4.48;100.00
64827;BME280;51265;53.972;12.286;2023-05-08T01:58:42;102083.25;;;4.52;100.00
64827;BME280;51265;53.972;12.286;2023-05-08T02:01:10;102089.53;;;4.53;100.00
64827;BME280;51265;53.972;12.286;2023-05-08T02:03:38;102087.09;;;4.44;100.00
64827;BME280;51265;53.972;12.286;2023-05-08T02:06:08;102078.50;;;4.41;100.00
64827;BME280;51265;53.972;12.286;2023-05-08T02:08:35;102085.44;;;4.43;100.00
64827;BME280;51265;53.972;12.286;2023-05-08T02:11:04;102088.06;;;4.50;100.00
64827;BME280;51265;53.972;12.286;2023-05-08T02:13:32;102084.19;;;4.39;100.00
64827;BME280;51265;53.972;12.286;2023-05-08T02:16:00;102084.63;;;4.36;100.00
64827;BME280;51265;53.972;12.286;2023-05-08T02:18:28;102085.06;;;4.33;100.00
64827;BME280;51265;53.972;12.286;2023-05-08T02:20:58;102078.38;;;4.29;100.00
64827;BME280;51265;53.972;12.286;2023-05-08T02:23:26;102095.72;;;4.66;100.00
64827;BME280;51265;53.972;12.286;2023-05-08T02:25:53;102091.03;;;4.48;100.00
64827;BME280;51265;53.972;12.286;2023-05-08T02:28:21;102085.44;;;4.43;100.00
64827;BME280;51265;53.972;12.286;2023-05-08T02:30:49;102087.34;;;4.36;100.00
64827;BME280;51265;53.972;12.286;2023-05-08T02:33:17;102083.00;;;4.29;100.00
64827;BME280;51265;53.972;12.286;2023-05-08T02:35:45;102077.66;;;4.15;100.00
64827;BME280;51265;53.972;12.286;2023-05-08T02:38:13;102088.56;;;4.15;100.00
64827;BME280;51265;53.972;12.286;2023-05-08T02:40:45;102092.56;;;4.13;100.00
64827;BME280;51265;53.972;12.286;2023-05-08T02:43:12;102091.72;;;4.12;100.00
64827;BME280;51265;53.972;12.286;2023-05-08T02:45:44;102088.59;;;4.09;100.00
64827;BME280;51265;53.972;12.286;2023-05-08T02:50:56;102078.47;;;3.84;100.00
64827;BME280;51265;53.972;12.286;2023-05-08T02:53:31;102078.28;;;3.79;100.00
64827;BME280;51265;53.972;12.286;2023-05-08T02:56:08;102071.59;;;3.75;100.00
64827;BME280;51265;53.972;12.286;2023-05-08T02:58:42;102078.13;;;3.67;100.00
64827;BME280;51265;53.972;12.286;2023-05-08T03:01:18;102083.38;;;3.69;100.00
64827;BME280;51265;53.972;12.286;2023-05-08T03:03:53;102081.41;;;3.89;100.00
64827;BME280;51265;53.972;12.286;2023-05-08T03:06:25;102077.44;;;3.85;100.00
64827;BME280;51265;53.972;12.286;2023-05-08T03:09:06;102078.72;;;3.76;100.00
64827;BME280;51265;53.972;12.286;2023-05-08T03:11:39;102074.16;;;3.70;100.00
64827;BME280;51265;53.972;12.286;2023-05-08T03:14:11;102074.38;;;3.68;100.00
64827;BME280;51265;53.972;12.286;2023-05-08T03:16:41;102077.94;;;3.69;100.00
64827;BME280;51265;53.972;12.286;2023-05-08T03:19:18;102077.56;;;3.59;100.00
64827;BME280;51265;53.972;12.286;2023-05-08T03:21:47;102077.94;;;3.69;100.00
64827;BME280;51265;53.972;12.286;2023-05-08T03:24:15;102074.56;;;3.73;100.00
64827;BME280;51265;53.972;12.286;2023-05-08T03:26:43;102081.50;;;3.69;100.00
64827;BME280;51265;53.972;12.286;2023-05-08T03:29:12;102082.31;;;3.70;100.00
64827;BME280;51265;53.972;12.286;2023-05-08T03:31:40;102085.88;;;3.70;100.00
64827;BME280;51265;53.972;12.286;2023-05-08T03:34:08;102079.59;;;3.70;100.00
64827;BME280;51265;53.972;12.286;2023-05-08T03:36:37;102083.38;;;3.69;100.00
64827;BME280;51265;53.972;12.286;2023-05-08T03:39:04;102078.78;;;3.69;100.00
64827;BME280;51265;53.972;12.286;2023-05-08T03:41:30;102077.94;;;3.69;100.00
64827;BME280;51265;53.972;12.286;2023-05-08T03:43:57;102080.22;;;3.72;100.00
64827;BME280;51265;53.972;12.286;2023-05-08T03:46:24;102082.50;;;3.75;100.00
64827;BME280;51265;53.972;12.286;2023-05-08T03:48:52;102082.69;;;3.80;100.00
64827;BME280;51265;53.972;12.286;2023-05-08T03:51:20;102083.50;;;3.87;100.00
64827;BME280;51265;53.972;12.286;2023-05-08T03:53:46;102087.22;;;3.93;100.00
64827;BME280;51265;53.972;12.286;2023-05-08T03:56:13;102091.41;;;3.95;100.00
64827;BME280;51265;53.972;12.286;2023-05-08T04:04:16;102097.50;;;3.97;100.00
64827;BME280;51265;53.972;12.286;2023-05-08T04:06:48;102091.16;;;4.04;100.00
64827;BME280;51265;53.972;12.286;2023-05-08T04:12:20;102090.28;;;4.10;100.00
64827;BME280;51265;53.972;12.286;2023-05-08T04:15:00;102087.09;;;4.13;100.00
64827;BME280;51265;53.972;12.286;2023-05-08T04:17:49;102084.84;;;4.10;100.00
64827;BME280;51265;53.972;12.286;2023-05-08T04:20:20;102080.16;;;4.17;100.00
64827;BME280;51265;53.972;12.286;2023-05-08T04:22:49;102091.41;;;4.27;100.00
64827;BME280;51265;53.972;12.286;2023-05-08T04:25:18;102087.97;;;4.38;100.00
64827;BME280;51265;53.972;12.286;2023-05-08T04:27:47;102085.06;;;4.58;100.00
64827;BME280;51265;53.972;12.286;2023-05-08T04:30:14;102090.75;;;4.57;100.00
64827;BME280;51265;53.972;12.286;2023-05-08T04:32:41;102087.75;;;4.65;100.00
64827;BME280;51265;53.972;12.286;2023-05-08T04:35:09;102089.13;;;4.74;100.00
64827;BME280;51265;53.972;12.286;2023-05-08T04:37:35;102088.41;;;4.85;100.00
64827;BME280;51265;53.972;12.286;2023-05-08T04:40:03;102085.97;;;4.95;100.00
64827;BME280;51265;53.972;12.286;2023-05-08T04:42:33;102100.56;;;5.08;100.00
64827;BME280;51265;53.972;12.286;2023-05-08T04:45:02;102100.22;;;5.22;100.00
64827;BME280;51265;53.972;12.286;2023-05-08T04:47:28;102106.78;;;5.33;100.00
64827;BME280;51265;53.972;12.286;2023-05-08T04:49:55;102103.06;;;5.46;100.00
64827;BME280;51265;53.972;12.286;2023-05-08T04:52:21;102096.00;;;5.57;100.00
64827;BME280;51265;53.972;12.286;2023-05-08T04:54:47;102103.91;;;5.65;100.00
64827;BME280;51265;53.972;12.286;2023-05-08T04:57:13;102102.28;;;5.75;100.00
64827;BME280;51265;53.972;12.286;2023-05-08T04:59:40;102104.00;;;5.88;100.00
64827;BME280;51265;53.972;12.286;2023-05-08T05:02:06;102101.78;;;5.97;100.00
64827;BME280;51265;53.972;12.286;2023-05-08T05:04:35;102102.69;;;6.09;100.00
64827;BME280;51265;53.972;12.286;2023-05-08T05:07:03;102104.00;;;6.18;100.00
64827;BME280;51265;53.972;12.286;2023-05-08T05:09:29;102111.41;;;6.30;100.00
64827;BME280;51265;53.972;12.286;2023-05-08T05:11:55;102107.63;;;6.42;100.00
64827;BME280;51265;53.972;12.286;2023-05-08T05:14:22;102120.41;;;6.60;100.00
64827;BME280;51265;53.972;12.286;2023-05-08T05:16:48;102113.28;;;6.71;100.00
64827;BME280;51265;53.972;12.286;2023-05-08T05:19:14;102111.03;;;6.80;100.00
64827;BME280;51265;53.972;12.286;2023-05-08T05:21:41;102116.03;;;6.94;100.00
64827;BME280;51265;53.972;12.286;2023-05-08T05:24:07;102109.97;;;7.04;100.00
64827;BME280;51265;53.972;12.286;2023-05-08T05:26:35;102109.22;;;7.20;100.00
64827;BME280;51265;53.972;12.286;2023-05-08T05:29:02;102114.72;;;7.32;100.00
64827;BME280;51265;53.972;12.286;2023-05-08T05:31:29;102105.13;;;7.46;100.00
64827;BME280;51265;53.972;12.286;2023-05-08T05:33:55;102110.84;;;7.57;100.00
64827;BME280;51265;53.972;12.286;2023-05-08T05:36:21;102100.06;;;7.67;100.00
64827;BME280;51265;53.972;12.286;2023-05-08T05:38:48;102105.44;;;7.73;100.00
64827;BME280;51265;53.972;12.286;2023-05-08T05:41:14;102098.22;;;7.84;100.00
64827;BME280;51265;53.972;12.286;2023-05-08T05:43:41;102077.06;;;7.96;100.00
64827;BME280;51265;53.972;12.286;2023-05-08T05:46:08;102076.31;;;8.01;100.00
64827;BME280;51265;53.972;12.286;2023-05-08T05:48:35;102080.44;;;8.15;100.00
64827;BME280;51265;53.972;12.286;2023-05-08T05:51:02;102072.09;;;8.27;100.00
64827;BME280;51265;53.972;12.286;2023-05-08T05:53:29;102066.63;;;8.27;100.00
64827;BME280;51265;53.972;12.286;2023-05-08T05:55:55;102069.66;;;8.42;100.00
64827;BME280;51265;53.972;12.286;2023-05-08T05:58:22;102063.50;;;8.52;100.00
64827;BME280;51265;53.972;12.286;2023-05-08T06:00:48;102060.84;;;8.57;98.92
64827;BME280;51265;53.972;12.286;2023-05-08T06:03:15;102047.19;;;8.62;97.50
64827;BME280;51265;53.972;12.286;2023-05-08T06:05:42;102042.28;;;8.64;96.64
64827;BME280;51265;53.972;12.286;2023-05-08T06:08:08;102038.28;;;8.72;95.31
64827;BME280;51265;53.972;12.286;2023-05-08T06:10:34;102031.59;;;8.85;94.35
64827;BME280;51265;53.972;12.286;2023-05-08T06:13:01;102043.03;;;8.98;94.35
64827;BME280;51265;53.972;12.286;2023-05-08T06:15:29;102030.59;;;9.13;93.50
64827;BME280;51265;53.972;12.286;2023-05-08T06:17:56;102032.53;;;9.34;93.00
64827;BME280;51265;53.972;12.286;2023-05-08T06:20:23;102028.19;;;9.38;91.55
64827;BME280;51265;53.972;12.286;2023-05-08T06:22:49;102027.78;;;9.52;90.53
64827;BME280;51265;53.972;12.286;2023-05-08T06:25:15;102012.41;;;9.56;88.79
64827;BME280;51265;53.972;12.286;2023-05-08T06:27:42;101999.53;;;9.61;88.09
64827;BME280;51265;53.972;12.286;2023-05-08T06:30:09;102006.59;;;9.74;87.07
64827;BME280;51265;53.972;12.286;2023-05-08T06:32:36;101993.47;;;9.86;85.88
64827;BME280;51265;53.972;12.286;2023-05-08T06:35:02;101984.50;;;9.96;84.33
64827;BME280;51265;53.972;12.286;2023-05-08T06:37:29;101980.47;;;10.09;82.63
64827;BME280;51265;53.972;12.286;2023-05-08T06:39:55;101963.47;;;10.17;81.82
64827;BME280;51265;53.972;12.286;2023-05-08T06:42:21;101964.06;;;10.24;80.83
64827;BME280;51265;53.972;12.286;2023-05-08T06:44:47;101938.81;;;10.32;79.73
64827;BME280;51265;53.972;12.286;2023-05-08T06:47:15;101934.22;;;10.43;78.78
64827;BME280;51265;53.972;12.286;2023-05-08T06:49:42;101917.97;;;10.41;77.78
64827;BME280;51265;53.972;12.286;2023-05-08T06:52:08;101911.38;;;10.47;76.98
64827;BME280;51265;53.972;12.286;2023-05-08T06:54:38;101904.53;;;10.50;75.96
64827;BME280;51265;53.972;12.286;2023-05-08T06:57:04;101899.84;;;10.51;75.10
64827;BME280;51265;53.972;12.286;2023-05-08T06:59:31;101888.91;;;10.66;74.95
64827;BME280;51265;53.972;12.286;2023-05-08T07:01:57;101910.38;;;10.69;74.40
64827;BME280;51265;53.972;12.286;2023-05-08T07:04:24;101905.47;;;10.76;73.83
64827;BME280;51265;53.972;12.286;2023-05-08T07:06:50;101885.59;;;10.74;72.90
64827;BME280;51265;53.972;12.286;2023-05-08T07:09:16;101881.56;;;10.87;72.12
64827;BME280;51265;53.972;12.286;2023-05-08T07:11:42;101879.09;;;11.01;72.13
64827;BME280;51265;53.972;12.286;2023-05-08T07:14:09;101866.97;;;11.07;71.75
64827;BME280;51265;53.972;12.286;2023-05-08T07:16:35;101868.41;;;11.25;71.42
64827;BME280;51265;53.972;12.286;2023-05-08T07:19:02;101860.97;;;11.25;70.66
64827;BME280;51265;53.972;12.286;2023-05-08T07:21:29;101853.22;;;11.32;69.88
64827;BME280;51265;53.972;12.286;2023-05-08T07:23:55;101848.31;;;11.55;69.71
64827;BME280;51265;53.972;12.286;2023-05-08T07:26:21;101849.41;;;11.69;69.30
64827;BME280;51265;53.972;12.286;2023-05-08T07:28:48;101837.81;;;11.77;68.67
64827;BME280;51265;53.972;12.286;2023-05-08T07:31:15;101823.72;;;11.99;67.36
64827;BME280;51265;53.972;12.286;2023-05-08T07:33:42;101825.63;;;12.04;67.91
64827;BME280;51265;53.972;12.286;2023-05-08T07:36:08;101815.16;;;12.06;67.18
64827;BME280;51265;53.972;12.286;2023-05-08T07:38:34;101815.69;;;12.18;66.84
64827;BME280;51265;53.972;12.286;2023-05-08T07:41:01;101808.16;;;12.29;66.96
64827;BME280;51265;53.972;12.286;2023-05-08T07:43:27;101784.44;;;12.23;65.46
64827;BME280;51265;53.972;12.286;2023-05-08T07:45:53;101776.13;;;12.28;64.85
64827;BME280;51265;53.972;12.286;2023-05-08T07:48:20;101778.88;;;12.33;64.87
64827;BME280;51265;53.972;12.286;2023-05-08T07:50:48;101788.19;;;12.52;65.06
64827;BME280;51265;53.972;12.286;2023-05-08T07:53:15;101789.53;;;12.60;65.00
64827;BME280;51265;53.972;12.286;2023-05-08T07:55:41;101783.41;;;12.68;64.54
64827;BME280;51265;53.972;12.286;2023-05-08T07:58:07;101777.28;;;12.76;64.10
64827;BME280;51265;53.972;12.286;2023-05-08T08:00:34;101757.13;;;12.70;63.25
64827;BME280;51265;53.972;12.286;2023-05-08T08:03:00;101769.75;;;12.92;64.12
64827;BME280;51265;53.972;12.286;2023-05-08T08:05:27;101751.22;;;12.92;63.09
64827;BME280;51265;53.972;12.286;2023-05-08T08:07:53;101744.81;;;12.97;62.96
64827;BME280;51265;53.972;12.286;2023-05-08T08:10:19;101743.59;;;13.08;62.50
64827;BME280;51265;53.972;12.286;2023-05-08T08:12:46;101753.47;;;13.19;62.67
64827;BME280;51265;53.972;12.286;2023-05-08T08:15:12;101755.59;;;13.38;62.95
64827;BME280;51265;53.972;12.286;2023-05-08T08:17:38;101742.66;;;13.28;62.31
64827;BME280;51265;53.972;12.286;2023-05-08T08:20:05;101741.34;;;13.50;62.66
64827;BME280;51265;53.972;12.286;2023-05-08T08:22:31;101734.53;;;13.66;61.74
64827;BME280;51265;53.972;12.286;2023-05-08T08:24:57;101710.16;;;13.68;60.92
64827;BME280;51265;53.972;12.286;2023-05-08T08:27:23;101711.25;;;13.72;59.97
64827;BME280;51265;53.972;12.286;2023-05-08T08:29:49;101706.34;;;13.88;59.68
64827;BME280;51265;53.972;12.286;2023-05-08T08:32:16;101695.91;;;14.04;59.19
64827;BME280;51265;53.972;12.286;2023-05-08T08:34:42;101704.03;;;14.19;58.94
64827;BME280;51265;53.972;12.286;2023-05-08T08:37:08;101690.25;;;14.14;57.96
64827;BME280;51265;53.972;12.286;2023-05-08T08:39:34;101664.19;;;14.15;57.39
64827;BME280;51265;53.972;12.286;2023-05-08T08:42:01;101663.03;;;13.97;56.94
64827;BME280;51265;53.972;12.286;2023-05-08T08:44:28;101691.16;;;14.28;57.24
64827;BME280;51265;53.972;12.286;2023-05-08T08:46:57;101695.25;;;14.55;56.83
64827;BME280;51265;53.972;12.286;2023-05-08T08:49:30;101674.41;;;14.57;55.89
64827;BME280;51265;53.972;12.286;2023-05-08T08:52:01;101677.41;;;14.61;55.59
64827;BME280;51265;53.972;12.286;2023-05-08T08:54:29;101669.47;;;14.73;55.20
64827;BME280;51265;53.972;12.286;2023-05-08T08:57:00;101671.38;;;14.91;55.44
64827;BME280;51265;53.972;12.286;2023-05-08T08:59:27;101659.72;;;15.08;54.92
64827;BME280;51265;53.972;12.286;2023-05-08T09:01:56;101636.88;;;14.98;54.14
64827;BME280;51265;53.972;12.286;2023-05-08T09:04:23;101643.03;;;14.94;54.02
64827;BME280;51265;53.972;12.286;2023-05-08T09:06:52;101640.84;;;15.10;54.15
64827;BME280;51265;53.972;12.286;2023-05-08T09:09:19;101651.06;;;15.42;54.27
64827;BME280;51265;53.972;12.286;2023-05-08T09:11:46;101649.84;;;15.49;53.97
64827;BME280;51265;53.972;12.286;2023-05-08T09:14:12;101625.34;;;15.51;53.11
64827;BME280;51265;53.972;12.286;2023-05-08T09:16:38;101631.78;;;15.65;53.17
64827;BME280;51265;53.972;12.286;2023-05-08T09:19:05;101626.72;;;15.67;52.75
64827;BME280;51265;53.972;12.286;2023-05-08T09:21:31;101628.16;;;15.78;52.98
64827;BME280;51265;53.972;12.286;2023-05-08T09:23:59;101615.41;;;15.77;51.80
64827;BME280;51265;53.972;12.286;2023-05-08T09:26:37;101630.50;;;15.99;52.53
64827;BME280;51265;53.972;12.286;2023-05-08T09:31:37;101611.22;;;16.16;51.66
64827;BME280;51265;53.972;12.286;2023-05-08T09:34:06;101596.28;;;15.89;51.13
64827;BME280;51265;53.972;12.286;2023-05-08T09:36:33;101607.97;;;16.00;51.96
64827;BME280;51265;53.972;12.286;2023-05-08T09:39:02;101627.97;;;16.25;52.12
64827;BME280;51265;53.972;12.286;2023-05-08T09:41:29;101623.91;;;16.44;52.00
64827;BME280;51265;53.972;12.286;2023-05-08T09:44:03;101603.38;;;16.32;51.71
64827;BME280;51265;53.972;12.286;2023-05-08T09:46:30;101610.88;;;16.31;51.83
64827;BME280;51265;53.972;12.286;2023-05-08T09:49:00;101644.81;;;16.78;52.23
64827;BME280;51265;53.972;12.286;2023-05-08T09:51:29;101595.75;;;16.82;50.07
64827;BME280;51265;53.972;12.286;2023-05-08T09:53:58;101590.19;;;16.82;49.78
64827;BME280;51265;53.972;12.286;2023-05-08T09:56:34;101584.72;;;17.00;49.68
64827;BME280;51265;53.972;12.286;2023-05-08T09:59:02;101572.97;;;17.03;49.46
64827;BME280;51265;53.972;12.286;2023-05-08T10:01:33;101575.59;;;17.08;49.16
64827;BME280;51265;53.972;12.286;2023-05-08T10:04:01;101563.81;;;17.02;49.12
64827;BME280;51265;53.972;12.286;2023-05-08T10:06:28;101559.19;;;16.98;49.29
64827;BME280;51265;53.972;12.286;2023-05-08T10:11:33;101582.47;;;17.02;50.01
64827;BME280;51265;53.972;12.286;2023-05-08T10:13:59;101578.38;;;17.08;49.88
64827;BME280;51265;53.972;12.286;2023-05-08T10:16:28;101568.25;;;17.12;50.07
64827;BME280;51265;53.972;12.286;2023-05-08T10:18:59;101574.97;;;17.11;49.63
64827;BME280;51265;53.972;12.286;2023-05-08T10:21:34;101563.69;;;17.16;48.65
64827;BME280;51265;53.972;12.286;2023-05-08T10:24:04;101583.34;;;17.59;48.72
64827;BME280;51265;53.972;12.286;2023-05-08T10:26:30;101554.34;;;17.52;47.86
64827;BME280;51265;53.972;12.286;2023-05-08T10:29:04;101583.25;;;17.73;48.50
64827;BME280;51265;53.972;12.286;2023-05-08T10:31:34;101577.22;;;17.88;48.71
64827;BME280;51265;53.972;12.286;2023-05-08T10:34:02;101572.63;;;17.92;48.17
64827;BME280;51265;53.972;12.286;2023-05-08T10:36:29;101553.31;;;18.05;47.62
64827;BME280;51265;53.972;12.286;2023-05-08T10:38:57;101557.41;;;17.99;47.76
64827;BME280;51265;53.972;12.286;2023-05-08T10:41:24;101582.66;;;18.46;47.99
64827;BME280;51265;53.972;12.286;2023-05-08T10:43:52;101578.53;;;18.52;48.16
64827;BME280;51265;53.972;12.286;2023-05-08T10:46:28;101540.69;;;18.33;47.00
64827;BME280;51265;53.972;12.286;2023-05-08T10:49:11;101546.75;;;18.53;47.01
64827;BME280;51265;53.972;12.286;2023-05-08T10:51:55;101539.81;;;18.76;47.03
64827;BME280;51265;53.972;12.286;2023-05-08T10:57:11;101518.84;;;18.70;46.40
64827;BME280;51265;53.972;12.286;2023-05-08T10:59:37;101527.78;;;18.93;46.13
64827;BME280;51265;53.972;12.286;2023-05-08T11:02:07;101527.00;;;19.22;46.10
64827;BME280;51265;53.972;12.286;2023-05-08T11:04:33;101522.03;;;19.36;46.15
64827;BME280;51265;53.972;12.286;2023-05-08T11:06:59;101521.16;;;19.45;45.88
64827;BME280;51265;53.972;12.286;2023-05-08T11:09:28;101487.44;;;19.20;45.37
64827;BME280;51265;53.972;12.286;2023-05-08T11:12:07;101490.69;;;19.22;45.38
64827;BME280;51265;53.972;12.286;2023-05-08T11:14:35;101484.13;;;19.48;45.17
64827;BME280;51265;53.972;12.286;2023-05-08T11:17:03;101479.78;;;19.88;43.29
64827;BME280;51265;53.972;12.286;2023-05-08T11:19:29;101431.34;;;19.55;42.71
64827;BME280;51265;53.972;12.286;2023-05-08T11:22:20;101464.38;;;20.03;42.90
64827;BME280;51265;53.972;12.286;2023-05-08T11:25:16;101436.88;;;20.05;42.62
64827;BME280;51265;53.972;12.286;2023-05-08T11:30:37;101449.34;;;20.41;43.09
64827;BME280;51265;53.972;12.286;2023-05-08T11:38:34;101393.56;;;20.11;41.83
64827;BME280;51265;53.972;12.286;2023-05-08T11:41:10;101394.16;;;19.84;41.90
64827;BME280;51265;53.972;12.286;2023-05-08T11:43:57;101399.34;;;19.94;41.86
64827;BME280;51265;53.972;12.286;2023-05-08T11:46:41;101419.09;;;20.55;41.97
64827;BME280;51265;53.972;12.286;2023-05-08T11:49:12;101379.94;;;20.22;41.12
64827;BME280;51265;53.972;12.286;2023-05-08T11:51:39;101411.28;;;20.49;41.97
64827;BME280;51265;53.972;12.286;2023-05-08T11:54:18;101396.31;;;20.45;41.94
64827;BME280;51265;53.972;12.286;2023-05-08T11:56:46;101392.66;;;20.65;40.82
64827;BME280;51265;53.972;12.286;2023-05-08T11:59:13;101382.38;;;20.57;40.79
64827;BME280;51265;53.972;12.286;2023-05-08T12:01:39;101370.47;;;20.72;40.72
64827;BME280;51265;53.972;12.286;2023-05-08T12:04:07;101365.59;;;20.57;40.70
64827;BME280;51265;53.972;12.286;2023-05-08T12:06:35;101362.72;;;20.32;40.90
64827;BME280;51265;53.972;12.286;2023-05-08T12:09:09;101389.72;;;20.61;41.29
64827;BME280;51265;53.972;12.286;2023-05-08T12:11:35;101357.66;;;20.59;40.51
64827;BME280;51265;53.972;12.286;2023-05-08T12:14:02;101367.78;;;20.76;40.44
64827;BME280;51265;53.972;12.286;2023-05-08T12:16:28;101381.22;;;20.95;40.72
64827;BME280;51265;53.972;12.286;2023-05-08T12:18:55;101368.69;;;21.17;39.45
64827;BME280;51265;53.972;12.286;2023-05-08T12:21:22;101362.97;;;21.25;39.50
64827;BME280;51265;53.972;12.286;2023-05-08T12:23:48;101409.72;;;21.89;39.60
64827;BME280;51265;53.972;12.286;2023-05-08T12:26:14;101338.19;;;21.39;38.77
64827;BME280;51265;53.972;12.286;2023-05-08T12:28:43;101371.28;;;21.90;39.19
64827;BME280;51265;53.972;12.286;2023-05-08T12:31:10;101384.59;;;22.53;38.01
64827;BME280;51265;53.972;12.286;2023-05-08T12:33:37;101372.03;;;22.47;38.57
64827;BME280;51265;53.972;12.286;2023-05-08T12:36:04;101336.19;;;22.24;38.09
64827;BME280;51265;53.972;12.286;2023-05-08T12:38:31;101303.50;;;21.72;38.46
64827;BME280;51265;53.972;12.286;2023-05-08T12:40:57;101363.03;;;21.81;39.55
64827;BME280;51265;53.972;12.286;2023-05-08T12:43:35;101383.63;;;22.45;38.82
64827;BME280;51265;53.972;12.286;2023-05-08T12:46:04;101352.81;;;22.49;38.08
64827;BME280;51265;53.972;12.286;2023-05-08T12:48:31;101345.44;;;22.41;37.53
64827;BME280;51265;53.972;12.286;2023-05-08T12:51:04;101363.75;;;22.85;37.34
64827;BME280;51265;53.972;12.286;2023-05-08T12:53:31;101335.25;;;22.52;37.88
64827;BME280;51265;53.972;12.286;2023-05-08T12:56:01;101298.34;;;22.18;37.59
64827;BME280;51265;53.972;12.286;2023-05-08T12:58:33;101317.50;;;21.72;38.66
64827;BME280;51265;53.972;12.286;2023-05-08T13:01:21;101321.44;;;21.83;38.30
64827;BME280;51265;53.972;12.286;2023-05-08T13:03:51;101291.84;;;21.70;37.85
64827;BME280;51265;53.972;12.286;2023-05-08T13:06:20;101322.38;;;22.03;37.66
64827;BME280;51265;53.972;12.286;2023-05-08T13:08:52;101304.81;;;21.91;37.98
64827;BME280;51265;53.972;12.286;2023-05-08T13:11:29;101324.69;;;22.13;37.58
64827;BME280;51265;53.972;12.286;2023-05-08T13:13:56;101345.59;;;22.63;37.30
64827;BME280;51265;53.972;12.286;2023-05-08T13:16:22;101374.88;;;23.14;37.17
64827;BME280;51265;53.972;12.286;2023-05-08T13:18:49;101304.06;;;22.88;36.00
64827;BME280;51265;53.972;12.286;2023-05-08T13:21:15;101335.50;;;23.29;36.29
64827;BME280;51265;53.972;12.286;2023-05-08T13:23:41;101330.72;;;23.69;35.75